Time;durP1;ratioP1;P1;durP2;ratioP2;P2;SDS_P1;SDS_P2;PMS_P1;PMS_P2;Temp;Humidity;BMP_temperature;BMP_pressure;BME280_temperature;BME280_humidity;BME280_pressure;Samples;Min_cycle;Max_cycle;Signal;HPM_P1;HPM_P2
2022/03/16 00:02:21;;;;;;;8.45;5.60;;;23.70;34.60;;;;;;5025467;28;20029;-48
2022/03/16 00:04:51;;;;;;;7.38;5.35;;;23.60;34.50;;;;;;5025358;28;20029;-49
2022/03/16 00:07:18;;;;;;;6.70;5.15;;;23.60;34.50;;;;;;5041340;28;20120;-47
2022/03/16 00:09:44;;;;;;;7.68;5.28;;;23.70;35.20;;;;;;5044488;28;20056;-47
2022/03/16 00:12:11;;;;;;;7.32;5.07;;;23.60;34.40;;;;;;5032718;28;20021;-48
2022/03/16 00:14:37;;;;;;;7.18;4.97;;;23.60;34.50;;;;;;5025521;28;20030;-48
2022/03/16 00:17:07;;;;;;;7.63;4.97;;;23.60;34.30;;;;;;5023856;28;20124;-47
2022/03/16 00:19:33;;;;;;;6.88;5.25;;;23.60;34.40;;;;;;5025002;28;20022;-48
2022/03/16 00:22:01;;;;;;;6.90;5.28;;;23.60;34.30;;;;;;5018511;28;20117;-48
2022/03/16 00:24:27;;;;;;;7.22;4.80;;;23.60;34.40;;;;;;5024924;28;20052;-48
2022/03/16 00:26:53;;;;;;;7.10;4.95;;;23.60;34.30;;;;;;5024772;28;20053;-48
2022/03/16 00:29:19;;;;;;;6.88;5.50;;;23.60;34.30;;;;;;5024812;28;20201;-48
2022/03/16 00:31:45;;;;;;;8.63;5.13;;;23.60;34.30;;;;;;5023259;28;20529;-48
2022/03/16 00:34:11;;;;;;;7.68;4.95;;;23.50;34.20;;;;;;5024604;28;20448;-47
2022/03/16 00:36:37;;;;;;;7.05;5.45;;;23.50;34.30;;;;;;5024806;28;20025;-47
2022/03/16 00:39:04;;;;;;;5.90;4.40;;;23.50;34.20;;;;;;5024591;28;20022;-49
2022/03/16 00:41:30;;;;;;;7.32;5.38;;;23.50;34.20;;;;;;5025020;28;20057;-48
2022/03/16 00:43:56;;;;;;;6.32;4.93;;;23.50;34.20;;;;;;5024582;28;20026;-48
2022/03/16 00:46:21;;;;;;;5.75;4.50;;;23.50;34.20;;;;;;5039614;28;20032;-47
2022/03/16 00:48:47;;;;;;;7.03;5.10;;;23.50;34.20;;;;;;5042633;28;20398;-48
2022/03/16 00:51:13;;;;;;;7.45;5.00;;;23.50;34.20;;;;;;5036327;28;20032;-47
2022/03/16 00:53:40;;;;;;;6.35;4.47;;;23.50;34.20;;;;;;5024326;28;20052;-48
2022/03/16 00:56:08;;;;;;;8.80;5.35;;;23.50;34.20;;;;;;5023745;28;20028;-49
2022/03/16 00:58:34;;;;;;;6.10;4.80;;;23.50;34.20;;;;;;5024721;28;20029;-47
2022/03/16 01:01:01;;;;;;;5.70;4.50;;;23.50;34.20;;;;;;5024336;28;20892;-48
2022/03/16 01:03:29;;;;;;;5.93;4.45;;;23.40;34.10;;;;;;5024704;28;20033;-49
2022/03/16 01:05:55;;;;;;;8.02;5.03;;;23.50;34.80;;;;;;5024185;28;20025;-48
2022/03/16 01:08:20;;;;;;;6.07;4.35;;;23.40;34.00;;;;;;5023841;28;20116;-47
2022/03/16 01:10:46;;;;;;;5.88;4.68;;;23.50;34.10;;;;;;5024739;28;20057;-49
2022/03/16 01:13:12;;;;;;;6.70;4.65;;;23.40;34.00;;;;;;5044034;28;20029;-47
2022/03/16 01:15:38;;;;;;;5.78;4.53;;;23.40;34.00;;;;;;5044496;28;20017;-48
2022/03/16 01:18:04;;;;;;;6.50;4.05;;;23.40;34.00;;;;;;5044159;28;20037;-50
2022/03/16 01:20:30;;;;;;;6.35;4.70;;;23.40;34.00;;;;;;5041819;28;20091;-48
2022/03/16 01:22:55;;;;;;;6.47;4.40;;;23.40;34.00;;;;;;5024197;28;20038;-47
2022/03/16 01:25:21;;;;;;;6.10;4.13;;;23.40;33.90;;;;;;5024491;28;20033;-46
2022/03/16 01:27:47;;;;;;;5.10;3.95;;;23.40;34.00;;;;;;5024068;28;20029;-48
2022/03/16 01:30:15;;;;;;;8.15;4.78;;;23.40;34.00;;;;;;5024430;28;20083;-48
2022/03/16 01:32:41;;;;;;;5.88;4.35;;;23.40;34.00;;;;;;5024416;28;20117;-49
2022/03/16 01:35:09;;;;;;;6.35;4.15;;;23.30;34.00;;;;;;5032426;28;20043;-48
2022/03/16 01:37:34;;;;;;;5.38;4.07;;;23.40;34.00;;;;;;5027113;28;20669;-49
2022/03/16 01:40:01;;;;;;;5.75;4.32;;;23.30;34.00;;;;;;5023593;28;20154;-48
2022/03/16 01:42:27;;;;;;;5.88;4.13;;;23.30;34.00;;;;;;5024663;28;20060;-48
2022/03/16 01:44:57;;;;;;;6.80;4.35;;;23.30;34.00;;;;;;5024241;28;20696;-47
2022/03/16 01:47:24;;;;;;;5.75;4.13;;;23.30;34.00;;;;;;5024265;28;20040;-48
2022/03/16 01:49:52;;;;;;;6.05;4.15;;;23.30;33.90;;;;;;5024099;28;20541;-48
2022/03/16 01:52:26;;;;;;;5.28;3.83;;;23.30;33.90;;;;;;5038551;28;20021;-47
2022/03/16 01:54:54;;;;;;;5.28;3.90;;;23.30;33.80;;;;;;5043797;28;20536;-47
2022/03/16 01:57:20;;;;;;;5.68;4.05;;;23.30;33.90;;;;;;5042343;28;20452;-47
2022/03/16 01:59:47;;;;;;;6.32;4.22;;;23.30;33.80;;;;;;5043638;28;20027;-49
2022/03/16 02:02:13;;;;;;;6.03;4.10;;;23.30;33.80;;;;;;5041728;28;20091;-49
2022/03/16 02:04:40;;;;;;;5.30;3.67;;;23.30;33.80;;;;;;5024163;28;20605;-48
2022/03/16 02:07:06;;;;;;;4.55;3.55;;;23.20;33.70;;;;;;5036028;28;20037;-49
2022/03/16 02:09:32;;;;;;;5.20;3.85;;;23.20;33.70;;;;;;5043581;28;20028;-48
2022/03/16 02:11:59;;;;;;;5.22;4.18;;;23.20;33.80;;;;;;5033905;28;20037;-49
2022/03/16 02:14:24;;;;;;;5.68;4.07;;;23.20;33.80;;;;;;5023950;28;20727;-48
2022/03/16 02:16:51;;;;;;;5.90;3.65;;;23.30;33.90;;;;;;5023422;28;20026;-48
2022/03/16 02:19:17;;;;;;;5.95;4.05;;;23.20;33.80;;;;;;5023308;28;20223;-48
2022/03/16 02:21:45;;;;;;;5.35;3.55;;;23.20;33.80;;;;;;5031995;28;20021;-48
2022/03/16 02:24:11;;;;;;;5.70;3.78;;;23.20;33.80;;;;;;5043787;28;20036;-47
2022/03/16 02:26:38;;;;;;;5.55;3.85;;;23.20;33.80;;;;;;5043822;28;20036;-48
2022/03/16 02:29:03;;;;;;;5.88;3.90;;;23.20;33.80;;;;;;5041845;28;20033;-48
2022/03/16 02:31:29;;;;;;;6.85;3.65;;;23.20;33.80;;;;;;5044792;28;20082;-48
2022/03/16 02:33:55;;;;;;;5.20;3.90;;;23.20;33.80;;;;;;5030464;28;20041;-47
2022/03/16 02:36:21;;;;;;;5.80;3.50;;;23.20;33.70;;;;;;5031600;28;20064;-47
2022/03/16 02:38:47;;;;;;;5.93;3.65;;;23.20;33.70;;;;;;5046659;28;20033;-47
2022/03/16 02:41:13;;;;;;;4.97;3.42;;;23.20;33.70;;;;;;5047065;28;20108;-48
2022/03/16 02:43:38;;;;;;;5.70;3.35;;;23.20;33.70;;;;;;5047211;28;20041;-49
2022/03/16 02:46:04;;;;;;;4.93;3.45;;;23.20;33.70;;;;;;5047139;28;20025;-48
2022/03/16 02:48:30;;;;;;;4.93;3.50;;;23.10;33.70;;;;;;5046572;28;20061;-48
2022/03/16 02:50:56;;;;;;;4.88;3.40;;;23.10;33.70;;;;;;5044475;28;20086;-48
2022/03/16 02:53:22;;;;;;;4.88;3.25;;;23.10;33.60;;;;;;5026458;28;20547;-49
2022/03/16 02:55:48;;;;;;;5.18;3.13;;;23.10;33.70;;;;;;5027191;28;20021;-48
2022/03/16 02:58:15;;;;;;;4.75;3.28;;;23.10;33.70;;;;;;5026960;28;20038;-47
2022/03/16 03:00:42;;;;;;;4.60;3.35;;;23.10;33.70;;;;;;5026410;28;20063;-49
2022/03/16 03:03:08;;;;;;;5.18;3.25;;;23.10;33.70;;;;;;5026378;28;20090;-48
2022/03/16 03:05:35;;;;;;;5.63;3.50;;;23.10;33.80;;;;;;5026309;28;20041;-48
2022/03/16 03:08:01;;;;;;;5.28;3.28;;;23.10;33.80;;;;;;5025670;28;20038;-48
2022/03/16 03:10:27;;;;;;;5.03;3.58;;;23.10;33.80;;;;;;5025040;28;20074;-47
2022/03/16 03:12:53;;;;;;;4.55;3.22;;;23.10;33.80;;;;;;5042274;28;20029;-47
2022/03/16 03:15:19;;;;;;;5.20;3.15;;;23.10;33.70;;;;;;5044983;28;20029;-47
2022/03/16 03:17:45;;;;;;;5.50;3.30;;;23.10;33.70;;;;;;5044949;28;20052;-48
2022/03/16 03:20:12;;;;;;;4.22;2.95;;;23.10;33.70;;;;;;5045572;28;20527;-47
2022/03/16 03:22:39;;;;;;;5.03;3.20;;;23.10;33.70;;;;;;5030962;28;20048;-47
2022/03/16 03:25:08;;;;;;;4.13;2.72;;;23.10;33.70;;;;;;5025976;28;20037;-48
2022/03/16 03:27:34;;;;;;;4.97;3.20;;;23.10;33.60;;;;;;5026131;28;20091;-48
2022/03/16 03:30:00;;;;;;;4.85;3.25;;;23.00;33.60;;;;;;5024833;28;20025;-48
2022/03/16 03:32:26;;;;;;;5.50;2.92;;;23.10;33.60;;;;;;5026005;28;20021;-48
2022/03/16 03:34:53;;;;;;;4.15;2.70;;;23.10;33.60;;;;;;5026383;28;20508;-47
2022/03/16 03:37:19;;;;;;;4.78;3.03;;;23.10;33.60;;;;;;5026072;28;20033;-47
2022/03/16 03:39:46;;;;;;;4.32;2.80;;;23.10;33.60;;;;;;5026189;28;20099;-48
2022/03/16 03:42:12;;;;;;;4.82;3.17;;;23.10;33.60;;;;;;5025798;28;20064;-47
2022/03/16 03:44:38;;;;;;;4.60;3.00;;;23.10;33.60;;;;;;5025701;28;20052;-50
2022/03/16 03:47:08;;;;;;;4.57;2.78;;;23.10;33.60;;;;;;5025886;28;20030;-48
2022/03/16 03:49:36;;;;;;;5.50;3.40;;;23.10;33.60;;;;;;5026026;28;20030;-48
2022/03/16 03:52:03;;;;;;;6.30;3.15;;;23.10;33.60;;;;;;5025620;28;20033;-46
2022/03/16 03:54:30;;;;;;;4.82;3.05;;;23.00;33.50;;;;;;5025685;28;20040;-47
2022/03/16 03:56:55;;;;;;;4.97;2.83;;;23.00;33.40;;;;;;5025005;28;20048;-47
2022/03/16 03:59:23;;;;;;;5.20;2.60;;;23.00;33.40;;;;;;5025207;28;20061;-48
2022/03/16 04:01:49;;;;;;;4.82;2.85;;;23.00;33.40;;;;;;5025418;28;20032;-48
2022/03/16 04:04:15;;;;;;;4.78;2.65;;;23.00;33.40;;;;;;5032243;28;20102;-48
2022/03/16 04:06:41;;;;;;;4.43;2.33;;;23.00;33.40;;;;;;5045243;28;20064;-47
2022/03/16 04:09:07;;;;;;;3.47;2.20;;;23.00;33.40;;;;;;5045043;28;20025;-48
2022/03/16 04:11:33;;;;;;;3.97;2.50;;;23.00;33.40;;;;;;5038932;28;20022;-48
2022/03/16 04:13:59;;;;;;;4.10;2.58;;;23.00;33.40;;;;;;5025078;28;20112;-47
2022/03/16 04:16:25;;;;;;;4.22;2.80;;;23.00;33.40;;;;;;5025398;28;20117;-55
2022/03/16 04:18:51;;;;;;;4.40;2.40;;;23.00;33.40;;;;;;5024633;28;20614;-49
2022/03/16 04:21:16;;;;;;;3.88;2.10;;;23.00;33.30;;;;;;5025100;28;20033;-47
2022/03/16 04:23:42;;;;;;;5.40;2.65;;;23.00;33.30;;;;;;5024954;28;20033;-48
2022/03/16 04:26:08;;;;;;;3.63;2.30;;;23.00;33.30;;;;;;5024802;28;20113;-48
2022/03/16 04:28:34;;;;;;;4.20;2.38;;;23.00;33.30;;;;;;5024539;28;20120;-48
2022/03/16 04:31:00;;;;;;;4.68;2.58;;;23.00;33.30;;;;;;5024925;28;20325;-48
2022/03/16 04:33:27;;;;;;;5.45;2.72;;;23.00;33.30;;;;;;5024132;28;20029;-48
2022/03/16 04:35:52;;;;;;;5.45;2.88;;;23.00;33.30;;;;;;5025286;28;20144;-48
2022/03/16 04:38:19;;;;;;;4.75;2.30;;;23.00;33.30;;;;;;5023199;28;20120;-48
2022/03/16 04:40:46;;;;;;;4.45;2.50;;;23.00;33.40;;;;;;5024242;28;20029;-47
2022/03/16 04:43:11;;;;;;;4.43;2.30;;;23.00;33.30;;;;;;5025238;28;20033;-47
2022/03/16 04:45:39;;;;;;;3.58;2.30;;;23.00;33.30;;;;;;5024856;28;20382;-47
2022/03/16 04:48:07;;;;;;;3.88;2.47;;;23.00;33.30;;;;;;5024587;28;20033;-47
2022/03/16 04:50:34;;;;;;;3.80;1.98;;;23.00;33.40;;;;;;5024169;28;20040;-48
2022/03/16 04:53:00;;;;;;;4.55;2.38;;;23.00;33.40;;;;;;5040085;28;20587;-46
2022/03/16 04:55:26;;;;;;;4.00;2.20;;;23.00;34.00;;;;;;5027461;28;20048;-49
2022/03/16 04:57:52;;;;;;;3.65;2.15;;;23.00;33.30;;;;;;5023406;28;20037;-48
2022/03/16 05:00:18;;;;;;;3.38;2.10;;;23.00;33.40;;;;;;5026470;28;20040;-48
2022/03/16 05:02:44;;;;;;;3.58;2.30;;;23.00;33.40;;;;;;5038359;28;20154;-48
2022/03/16 05:05:10;;;;;;;3.90;2.47;;;23.00;33.40;;;;;;5023984;28;20052;-47
2022/03/16 05:07:38;;;;;;;3.45;2.13;;;23.00;33.40;;;;;;5035751;28;20087;-49
2022/03/16 05:10:05;;;;;;;3.80;2.22;;;23.00;33.40;;;;;;5044168;28;20536;-48
2022/03/16 05:12:42;;;;;;;4.53;2.53;;;23.00;33.40;;;;;;5029683;28;20250;-48
2022/03/16 05:15:12;;;;;;;4.28;2.10;;;23.00;33.50;;;;;;5023238;28;20389;-49
2022/03/16 05:17:38;;;;;;;3.75;2.60;;;23.00;33.60;;;;;;5024354;28;20034;-49
2022/03/16 05:20:05;;;;;;;3.58;2.20;;;23.00;33.50;;;;;;5023642;28;20029;-50
2022/03/16 05:22:31;;;;;;;3.80;2.10;;;23.00;33.80;;;;;;5023340;28;20433;-49
2022/03/16 05:24:57;;;;;;;2.90;1.80;;;23.00;33.90;;;;;;5024592;28;20025;-49
2022/03/16 05:27:22;;;;;;;3.83;2.13;;;23.00;34.00;;;;;;5024009;28;20030;-49
2022/03/16 05:29:49;;;;;;;3.03;1.90;;;23.00;34.00;;;;;;5024046;28;20521;-49
2022/03/16 05:32:15;;;;;;;3.53;1.88;;;23.10;34.20;;;;;;5023502;28;20330;-48
2022/03/16 05:34:40;;;;;;;3.08;1.83;;;23.10;34.20;;;;;;5023681;28;20113;-49
2022/03/16 05:37:07;;;;;;;3.33;1.77;;;23.20;34.20;;;;;;5030930;28;20791;-48
2022/03/16 05:39:33;;;;;;;3.58;2.20;;;23.30;34.20;;;;;;5043962;28;20033;-49
2022/03/16 05:42:01;;;;;;;3.05;1.70;;;23.30;34.20;;;;;;5044112;28;20139;-49
2022/03/16 05:44:27;;;;;;;3.63;1.65;;;23.40;34.10;;;;;;5033894;28;20162;-48
2022/03/16 05:46:54;;;;;;;2.75;1.50;;;23.40;34.00;;;;;;5023618;28;20853;-48
2022/03/16 05:49:22;;;;;;;2.65;1.60;;;23.50;33.90;;;;;;5023371;28;20033;-48
2022/03/16 05:51:48;;;;;;;3.25;1.90;;;23.50;33.90;;;;;;5023195;28;20029;-48
2022/03/16 05:54:14;;;;;;;3.17;1.77;;;23.60;33.70;;;;;;5023809;28;20029;-48
2022/03/16 05:56:39;;;;;;;2.70;1.60;;;23.70;33.70;;;;;;5022459;28;20079;-48
2022/03/16 05:59:05;;;;;;;3.90;2.17;;;23.80;33.60;;;;;;5023056;28;20033;-49
2022/03/16 06:01:31;;;;;;;3.35;1.58;;;23.80;33.50;;;;;;5022810;28;20096;-48
2022/03/16 06:03:57;;;;;;;3.30;1.83;;;23.90;33.50;;;;;;5021663;28;20034;-49
2022/03/16 06:06:22;;;;;;;3.30;2.03;;;23.90;34.00;;;;;;5024845;28;20065;-49
2022/03/16 06:08:48;;;;;;;2.80;1.67;;;24.00;33.30;;;;;;5035338;28;20025;-48
2022/03/16 06:11:14;;;;;;;2.60;1.70;;;24.10;33.20;;;;;;5046484;28;20023;-49
2022/03/16 06:13:40;;;;;;;3.88;1.70;;;24.10;33.10;;;;;;5046821;28;20033;-49
2022/03/16 06:16:05;;;;;;;3.33;1.90;;;24.20;33.10;;;;;;5046119;28;20119;-49
2022/03/16 06:18:31;;;;;;;3.75;2.20;;;24.20;33.20;;;;;;5042420;28;20029;-49
2022/03/16 06:20:57;;;;;;;4.43;2.20;;;24.20;33.50;;;;;;5043443;28;20033;-49
2022/03/16 06:23:23;;;;;;;4.95;2.55;;;24.30;33.60;;;;;;5045489;28;20048;-49
2022/03/16 06:25:48;;;;;;;5.63;2.30;;;24.30;33.80;;;;;;5046142;28;20033;-48
2022/03/16 06:28:14;;;;;;;4.30;2.33;;;24.40;33.70;;;;;;5045476;28;20025;-48
2022/03/16 06:30:40;;;;;;;4.63;2.50;;;24.40;33.60;;;;;;5043923;28;20056;-49
2022/03/16 06:33:06;;;;;;;5.32;2.25;;;24.50;33.60;;;;;;5036791;28;20056;-48
2022/03/16 06:35:32;;;;;;;4.18;2.20;;;24.50;33.40;;;;;;5045554;28;20028;-49
2022/03/16 06:37:58;;;;;;;4.43;2.42;;;24.50;33.40;;;;;;5040790;28;20037;-49
2022/03/16 06:40:24;;;;;;;4.10;2.40;;;24.60;33.30;;;;;;5043414;28;20110;-49
2022/03/16 06:42:57;;;;;;;3.80;2.33;;;24.60;33.20;;;;;;5043463;28;20017;-49
2022/03/16 06:45:25;;;;;;;4.85;2.42;;;24.70;33.20;;;;;;5044491;28;20021;-49
2022/03/16 06:47:54;;;;;;;4.47;2.47;;;24.70;33.20;;;;;;5043121;28;20056;-49
2022/03/16 06:50:20;;;;;;;5.13;2.55;;;24.70;33.10;;;;;;5044906;28;20056;-49
2022/03/16 06:52:47;;;;;;;3.45;2.20;;;24.80;33.30;;;;;;5036114;28;20029;-48
2022/03/16 06:55:13;;;;;;;4.22;2.65;;;24.80;33.20;;;;;;5026099;28;20035;-49
2022/03/16 06:57:39;;;;;;;5.25;2.65;;;24.80;33.30;;;;;;5026115;28;20751;-49
2022/03/16 07:00:08;;;;;;;3.53;2.20;;;24.80;33.30;;;;;;5024853;28;20029;-49
2022/03/16 07:02:50;;;;;;;4.63;2.67;;;24.90;33.40;;;;;;5026304;28;20711;-49
2022/03/16 07:05:20;;;;;;;4.17;2.50;;;24.90;33.50;;;;;;5025805;28;20037;-49
2022/03/16 07:07:46;;;;;;;3.58;2.15;;;24.90;33.40;;;;;;5028697;28;20104;-48
2022/03/16 07:10:12;;;;;;;5.30;2.97;;;24.90;33.40;;;;;;5039497;28;20111;-50
2022/03/16 07:12:37;;;;;;;3.72;2.13;;;24.90;33.40;;;;;;5042825;28;20025;-48
2022/03/16 07:15:05;;;;;;;3.75;2.38;;;24.90;33.60;;;;;;5044857;28;20044;-49
2022/03/16 07:17:31;;;;;;;5.05;2.85;;;24.90;33.80;;;;;;5043534;28;20064;-50
2022/03/16 07:19:56;;;;;;;4.35;2.63;;;25.00;33.70;;;;;;5042070;28;20055;-48
2022/03/16 07:22:22;;;;;;;4.80;3.00;;;24.90;33.40;;;;;;5042648;28;20037;-50
2022/03/16 07:24:48;;;;;;;3.70;2.50;;;24.90;33.30;;;;;;5044836;28;20135;-50
2022/03/16 07:27:14;;;;;;;4.15;2.70;;;25.00;33.50;;;;;;5043988;28;20040;-49
2022/03/16 07:29:40;;;;;;;5.72;2.60;;;25.00;33.70;;;;;;5028018;28;20029;-49
2022/03/16 07:32:06;;;;;;;5.75;2.83;;;25.00;33.70;;;;;;5030799;28;20591;-49
2022/03/16 07:34:32;;;;;;;4.10;2.75;;;25.00;33.60;;;;;;5043619;28;20025;-47
2022/03/16 07:36:58;;;;;;;5.90;2.72;;;25.00;33.60;;;;;;5027568;28;20029;-50
2022/03/16 07:39:23;;;;;;;5.72;2.42;;;25.00;33.50;;;;;;5025728;28;20032;-49
2022/03/16 07:41:49;;;;;;;4.90;2.80;;;25.00;33.60;;;;;;5023761;28;20528;-49
2022/03/16 07:44:15;;;;;;;4.88;2.70;;;25.00;33.70;;;;;;5040209;28;20021;-50
2022/03/16 07:46:41;;;;;;;4.20;2.40;;;25.00;33.60;;;;;;5044540;28;20079;-49
2022/03/16 07:49:07;;;;;;;4.32;2.55;;;25.00;33.60;;;;;;5044458;28;20029;-49
2022/03/16 07:51:33;;;;;;;5.35;2.88;;;25.00;33.60;;;;;;5041413;28;20114;-50
2022/03/16 07:53:59;;;;;;;4.35;2.53;;;25.00;33.60;;;;;;5021711;28;20428;-49
2022/03/16 07:56:25;;;;;;;4.85;3.00;;;25.00;33.50;;;;;;5026019;28;20022;-49
2022/03/16 07:58:51;;;;;;;4.65;3.03;;;25.00;33.50;;;;;;5043936;28;20033;-49
2022/03/16 08:01:17;;;;;;;5.10;3.15;;;25.00;33.40;;;;;;5037963;28;20440;-48
2022/03/16 08:03:43;;;;;;;4.32;2.92;;;25.10;33.30;;;;;;5024353;28;20018;-49
2022/03/16 08:06:09;;;;;;;5.13;3.40;;;25.10;33.30;;;;;;5024961;28;20041;-48
2022/03/16 08:08:39;;;;;;;5.03;3.28;;;25.10;33.30;;;;;;5024043;28;20029;-48
2022/03/16 08:11:06;;;;;;;5.18;2.95;;;25.10;33.30;;;;;;5038788;28;20029;-48
2022/03/16 08:13:33;;;;;;;4.95;3.20;;;25.10;33.20;;;;;;5034136;28;20536;-49
2022/03/16 08:15:58;;;;;;;6.00;3.22;;;25.10;33.10;;;;;;5038541;28;20025;-50
2022/03/16 08:18:24;;;;;;;7.80;3.63;;;25.10;33.10;;;;;;5040436;28;20046;-49
2022/03/16 08:20:50;;;;;;;5.18;3.38;;;25.10;33.20;;;;;;5031248;28;20187;-50
2022/03/16 08:23:15;;;;;;;4.55;2.90;;;25.10;33.10;;;;;;5041946;28;20036;-49
2022/03/16 08:25:41;;;;;;;5.13;3.58;;;25.00;33.10;;;;;;5027199;28;20037;-49
2022/03/16 08:28:07;;;;;;;5.90;3.17;;;25.00;33.00;;;;;;5036492;28;20036;-49
2022/03/16 08:30:34;;;;;;;6.63;3.72;;;25.10;33.00;;;;;;5031285;28;20075;-49
2022/03/16 08:33:01;;;;;;;6.13;3.60;;;25.00;33.00;;;;;;5044146;28;20029;-49
2022/03/16 08:35:27;;;;;;;6.25;3.50;;;25.00;32.90;;;;;;5044649;28;20017;-50
2022/03/16 08:37:53;;;;;;;6.15;3.90;;;25.00;32.80;;;;;;5034113;28;20040;-50
2022/03/16 08:40:20;;;;;;;6.30;3.50;;;25.00;32.80;;;;;;5033739;28;20029;-49
2022/03/16 08:42:45;;;;;;;5.88;3.65;;;25.00;32.80;;;;;;5043602;28;20025;-49
2022/03/16 08:45:11;;;;;;;7.32;4.35;;;25.00;32.90;;;;;;5041387;28;20404;-49
2022/03/16 08:47:38;;;;;;;8.00;4.05;;;25.00;33.20;;;;;;5043499;28;20032;-48
2022/03/16 08:50:04;;;;;;;6.50;3.80;;;25.00;33.40;;;;;;5043176;28;20086;-48
2022/03/16 08:52:30;;;;;;;6.03;3.88;;;25.00;33.30;;;;;;5037708;28;20508;-50
2022/03/16 08:54:56;;;;;;;7.95;4.13;;;25.10;33.40;;;;;;5023860;28;20026;-49
2022/03/16 08:57:22;;;;;;;6.93;3.95;;;25.00;33.50;;;;;;5022366;28;20087;-49
2022/03/16 08:59:49;;;;;;;6.38;3.80;;;25.00;33.40;;;;;;5024105;28;20059;-49
2022/03/16 09:02:15;;;;;;;7.22;4.10;;;25.00;33.30;;;;;;5024006;28;20477;-49
2022/03/16 09:04:41;;;;;;;7.35;4.65;;;25.10;33.30;;;;;;5023838;28;20029;-49
2022/03/16 09:07:06;;;;;;;7.25;4.47;;;25.00;33.30;;;;;;5025355;28;20523;-48
2022/03/16 09:09:33;;;;;;;6.88;3.97;;;25.00;33.30;;;;;;5024003;28;20056;-48
2022/03/16 09:11:59;;;;;;;6.10;4.18;;;25.00;33.20;;;;;;5030665;28;20031;-50
2022/03/16 09:14:25;;;;;;;5.80;3.47;;;25.00;33.20;;;;;;5027414;28;20069;-49
2022/03/16 09:16:50;;;;;;;5.97;4.22;;;25.00;33.10;;;;;;5028097;28;20505;-49
2022/03/16 09:19:20;;;;;;;6.78;4.32;;;25.00;33.00;;;;;;5029050;28;20525;-49
2022/03/16 09:21:47;;;;;;;7.10;3.83;;;25.00;33.00;;;;;;5032177;28;20029;-48
2022/03/16 09:24:13;;;;;;;5.88;4.03;;;25.00;33.00;;;;;;5042791;28;20056;-49
2022/03/16 09:26:40;;;;;;;6.63;4.40;;;25.00;33.00;;;;;;5044058;28;20032;-49
2022/03/16 09:29:08;;;;;;;6.13;3.97;;;25.00;33.00;;;;;;5033875;28;20726;-49
2022/03/16 09:31:36;;;;;;;6.07;4.00;;;25.00;33.00;;;;;;5040459;28;20116;-49
2022/03/16 09:34:07;;;;;;;6.15;4.20;;;25.00;33.10;;;;;;5040469;28;20424;-49
2022/03/16 09:36:42;;;;;;;7.25;3.90;;;25.00;33.10;;;;;;5039868;28;20540;-50
2022/03/16 09:39:09;;;;;;;6.93;4.35;;;25.00;33.10;;;;;;5038630;28;20025;-50
2022/03/16 09:41:36;;;;;;;6.30;4.18;;;25.00;33.10;;;;;;5046006;28;20025;-49
2022/03/16 09:44:04;;;;;;;5.35;3.63;;;25.00;33.10;;;;;;5046938;28;20103;-50
2022/03/16 09:46:31;;;;;;;5.70;3.90;;;25.00;33.10;;;;;;5042998;28;20056;-49
2022/03/16 09:48:58;;;;;;;6.40;4.30;;;25.00;33.10;;;;;;5045182;28;20033;-48
2022/03/16 09:51:25;;;;;;;5.88;4.07;;;25.00;33.10;;;;;;5046163;28;20131;-49
2022/03/16 09:53:54;;;;;;;5.38;4.03;;;25.00;33.10;;;;;;5043875;28;20146;-50
2022/03/16 09:56:20;;;;;;;6.38;4.70;;;25.00;33.00;;;;;;5046797;28;20021;-48
2022/03/16 09:58:47;;;;;;;7.63;5.20;;;25.00;33.00;;;;;;5046910;28;20787;-48
2022/03/16 10:01:12;;;;;;;6.95;4.97;;;25.00;33.00;;;;;;5047044;28;20025;-48
2022/03/16 10:03:40;;;;;;;6.13;4.63;;;25.00;32.90;;;;;;5047685;28;20107;-49
2022/03/16 10:06:08;;;;;;;7.63;4.65;;;25.00;32.90;;;;;;5047183;28;20036;-50
2022/03/16 10:08:36;;;;;;;6.18;4.10;;;25.00;32.90;;;;;;5035623;28;20444;-49
2022/03/16 10:14:04;;;;;;;5.65;4.30;;;24.90;32.90;;;;;;5026959;28;20032;-49
2022/03/16 10:17:43;;;;;;;4.88;3.53;;;24.90;33.00;;;;;;5027325;28;20092;-50
2022/03/16 10:19:19;;;;;;;5.70;4.22;;;24.90;33.10;;;;;;5026611;28;20040;-50
2022/03/16 10:21:58;;;;;;;6.78;4.40;;;25.00;33.20;;;;;;5027226;28;20083;-51
2022/03/16 10:24:29;;;;;;;6.30;4.28;;;24.90;33.20;;;;;;5027706;28;20036;-49
2022/03/16 10:26:59;;;;;;;6.80;4.05;;;24.90;33.30;;;;;;5026038;28;20107;-49
2022/03/16 10:29:27;;;;;;;5.65;4.32;;;24.90;33.30;;;;;;5026561;28;20064;-49
2022/03/16 10:32:04;;;;;;;6.03;4.00;;;25.00;33.30;;;;;;5025757;28;20036;-48
2022/03/16 10:34:31;;;;;;;6.85;4.95;;;25.00;33.40;;;;;;5026322;28;20031;-49
2022/03/16 10:37:02;;;;;;;7.13;5.65;;;24.90;33.40;;;;;;5026833;28;20127;-49
2022/03/16 10:39:38;;;;;;;8.35;6.28;;;24.90;33.40;;;;;;5025443;28;20107;-50
2022/03/16 10:47:50;;;;;;;8.32;7.20;;;25.00;33.60;;;;;;5026050;28;20420;-48
2022/03/16 10:50:17;;;;;;;9.10;7.05;;;25.00;34.40;;;;;;5026140;28;20026;-48
2022/03/16 10:52:44;;;;;;;6.88;5.95;;;25.00;34.40;;;;;;5023741;28;20034;-50
2022/03/16 10:55:12;;;;;;;7.95;6.15;;;25.00;34.20;;;;;;5026612;28;20025;-49
2022/03/16 10:57:40;;;;;;;6.95;5.65;;;25.00;34.00;;;;;;5025722;28;20025;-49
2022/03/16 11:00:06;;;;;;;8.05;6.03;;;25.00;33.80;;;;;;5025667;28;20038;-47
2022/03/16 11:02:34;;;;;;;6.55;4.95;;;25.10;33.50;;;;;;5039859;28;20112;-48
2022/03/16 11:05:00;;;;;;;7.35;5.40;;;25.00;33.30;;;;;;5045371;28;20029;-49
2022/03/16 11:07:27;;;;;;;9.48;5.70;;;25.10;33.30;;;;;;5045047;28;20032;-50
2022/03/16 11:09:54;;;;;;;7.25;4.80;;;25.10;33.30;;;;;;5025909;28;20124;-48
2022/03/16 11:15:06;;;;;;;6.90;4.28;;;25.00;33.10;;;;;;5026175;28;20022;-50
2022/03/16 11:17:32;;;;;;;7.25;5.22;;;25.00;33.00;;;;;;5036871;28;20036;-49
2022/03/16 11:20:00;;;;;;;6.38;4.90;;;25.00;33.00;;;;;;5031764;28;20099;-50
2022/03/16 11:22:33;;;;;;;6.10;4.70;;;25.00;33.00;;;;;;5028023;28;20060;-48
2022/03/16 11:25:10;;;;;;;6.18;4.25;;;25.00;33.00;;;;;;5040835;28;20044;-49
2022/03/16 11:27:46;;;;;;;5.80;4.10;;;25.00;33.00;;;;;;5031964;28;20611;-50
2022/03/16 11:30:36;;;;;;;5.28;3.83;;;25.00;32.90;;;;;;5041578;28;20033;-49
2022/03/16 11:33:08;;;;;;;5.10;3.65;;;25.00;33.00;;;;;;5036215;28;20101;-50
2022/03/16 11:35:44;;;;;;;5.40;3.70;;;25.00;32.90;;;;;;5024481;28;20049;-49
2022/03/16 11:38:15;;;;;;;6.05;4.30;;;25.00;33.00;;;;;;5025302;28;20037;-49
2022/03/16 11:40:46;;;;;;;5.63;3.67;;;25.00;33.10;;;;;;5025210;28;20032;-48
2022/03/16 11:43:12;;;;;;;4.82;3.55;;;24.90;33.10;;;;;;5024458;28;20068;-48
2022/03/16 11:45:40;;;;;;;5.40;3.92;;;24.90;33.20;;;;;;5025774;28;20053;-49
2022/03/16 11:51:09;;;;;;;4.57;3.42;;;25.00;33.30;;;;;;5038957;28;20606;-50
2022/03/16 11:53:51;;;;;;;4.57;3.35;;;25.00;33.30;;;;;;5045374;28;20052;-49
2022/03/16 11:56:24;;;;;;;4.63;3.33;;;24.90;33.30;;;;;;5045370;28;20029;-50
2022/03/16 11:59:04;;;;;;;4.45;3.45;;;24.90;33.20;;;;;;5042557;28;20040;-50
2022/03/16 12:01:34;;;;;;;5.43;3.90;;;24.90;33.30;;;;;;5034514;28;20033;-49
2022/03/16 12:04:14;;;;;;;4.40;3.45;;;24.90;33.30;;;;;;5034833;28;20033;-49
2022/03/16 12:07:22;;;;;;;5.07;3.58;;;24.90;33.30;;;;;;5025628;28;20080;-49
2022/03/16 12:09:56;;;;;;;5.10;3.60;;;24.90;33.30;;;;;;5038624;28;20100;-48
2022/03/16 12:12:51;;;;;;;5.07;3.58;;;24.90;33.20;;;;;;5039862;28;20013;-49
2022/03/16 12:15:29;;;;;;;5.53;3.45;;;24.90;33.20;;;;;;5043232;28;20314;-49
2022/03/16 12:17:57;;;;;;;5.97;3.42;;;24.90;33.20;;;;;;5043806;28;20052;-49
2022/03/16 12:20:26;;;;;;;5.30;3.65;;;24.90;33.20;;;;;;5043399;28;20021;-49
2022/03/16 12:22:59;;;;;;;4.57;3.30;;;24.90;33.20;;;;;;5043025;28;20078;-48
2022/03/16 12:25:26;;;;;;;5.00;3.60;;;24.90;33.80;;;;;;5042268;28;20025;-49
2022/03/16 12:31:06;;;;;;;6.45;4.20;;;24.90;33.10;;;;;;5043204;28;20139;-49
2022/03/16 12:33:33;;;;;;;4.97;3.30;;;24.90;33.10;;;;;;5044744;28;20032;-48
2022/03/16 12:36:00;;;;;;;5.38;3.72;;;24.90;33.30;;;;;;5045136;28;20027;-49
2022/03/16 12:38:29;;;;;;;5.05;3.28;;;24.90;33.30;;;;;;5035236;28;20042;-47
2022/03/16 12:43:45;;;;;;;5.20;3.85;;;24.90;33.30;;;;;;5024354;28;20052;-48
2022/03/16 12:46:23;;;;;;;5.70;3.90;;;24.90;33.40;;;;;;5024397;28;20171;-47
2022/03/16 12:48:54;;;;;;;5.10;3.80;;;24.90;33.50;;;;;;5024121;28;20034;-47
2022/03/16 12:51:46;;;;;;;4.95;3.80;;;24.90;33.50;;;;;;5041156;28;20028;-48
2022/03/16 12:54:15;;;;;;;6.03;4.13;;;24.90;33.50;;;;;;5043730;28;20036;-48
2022/03/16 12:56:43;;;;;;;5.20;3.58;;;24.90;33.40;;;;;;5043891;28;20126;-49
2022/03/16 12:59:10;;;;;;;6.00;3.85;;;24.90;33.30;;;;;;5043332;28;20036;-48
2022/03/16 13:01:36;;;;;;;5.30;4.10;;;24.80;33.30;;;;;;5043350;28;20033;-49
2022/03/16 13:04:04;;;;;;;5.25;3.65;;;24.90;33.40;;;;;;5043422;28;20029;-48
2022/03/16 13:06:33;;;;;;;4.90;3.92;;;24.80;33.40;;;;;;5043109;28;20106;-49
2022/03/16 13:09:09;;;;;;;5.15;3.67;;;24.80;33.40;;;;;;5029736;28;20037;-49
2022/03/16 13:11:39;;;;;;;5.57;3.60;;;24.80;34.10;;;;;;5023549;28;20026;-49